La Moille, Illinois
Current Conditions -  °F | °C
As of 1:15 AM on Friday 31 Oct 2014 (Local Time) from KVYS Reporting Station
Overcast Overcast  
Wind Chill: 41°   Ceiling: 4500
Heat Index: 45°   Visibility: 10mi
Dew Point: 39°   Wind: 7mph
Humidity: 80%   Direction: 280°W
Pressure: 30.07"   Gusts: NA
Location:  41.53°N, 89.28°W
Report Text: KVYS 310615Z AUTO 28006KT 10SM OVC045 07/04 A3007 RMK AO2 T00730041
Loading
Personal Weather Stations






























Interactive Weather Map
Tropical Storm Tracking
New forecast layout! Learn more

10-Day Weather Forecast

Advertisements
Track Severe Weather on mobile